sensor_id;sensor_type;location;lat;lon;timestamp;P1;durP1;ratioP1;P2;durP2;ratioP2
7047;SDS011;3565;53.254;10.352;2023-12-20T00:02:56;10.70;;;3.27;;
7047;SDS011;3565;53.254;10.352;2023-12-20T00:05:25;5.93;;;3.17;;
7047;SDS011;3565;53.254;10.352;2023-12-20T00:07:54;9.10;;;2.73;;
7047;SDS011;3565;53.254;10.352;2023-12-20T00:10:23;7.53;;;2.80;;
7047;SDS011;3565;53.254;10.352;2023-12-20T00:12:52;13.40;;;2.67;;
7047;SDS011;3565;53.254;10.352;2023-12-20T00:15:21;9.20;;;2.80;;
7047;SDS011;3565;53.254;10.352;2023-12-20T00:17:50;10.37;;;2.93;;
7047;SDS011;3565;53.254;10.352;2023-12-20T00:20:19;9.70;;;2.47;;
7047;SDS011;3565;53.254;10.352;2023-12-20T00:22:47;10.13;;;2.60;;
7047;SDS011;3565;53.254;10.352;2023-12-20T00:25:16;12.20;;;2.53;;
7047;SDS011;3565;53.254;10.352;2023-12-20T00:27:45;11.93;;;3.63;;
7047;SDS011;3565;53.254;10.352;2023-12-20T00:30:14;9.63;;;2.70;;
7047;SDS011;3565;53.254;10.352;2023-12-20T00:32:43;8.70;;;2.60;;
7047;SDS011;3565;53.254;10.352;2023-12-20T00:35:14;14.37;;;3.20;;
7047;SDS011;3565;53.254;10.352;2023-12-20T00:37:43;8.23;;;2.83;;
7047;SDS011;3565;53.254;10.352;2023-12-20T00:40:12;7.50;;;2.30;;
7047;SDS011;3565;53.254;10.352;2023-12-20T00:42:42;9.10;;;2.27;;
7047;SDS011;3565;53.254;10.352;2023-12-20T00:47:50;6.77;;;2.90;;
7047;SDS011;3565;53.254;10.352;2023-12-20T00:50:19;10.00;;;2.67;;
7047;SDS011;3565;53.254;10.352;2023-12-20T00:52:48;10.97;;;3.13;;
7047;SDS011;3565;53.254;10.352;2023-12-20T00:55:17;7.80;;;2.50;;
7047;SDS011;3565;53.254;10.352;2023-12-20T00:57:46;7.53;;;3.07;;
7047;SDS011;3565;53.254;10.352;2023-12-20T01:00:16;7.90;;;2.40;;
7047;SDS011;3565;53.254;10.352;2023-12-20T01:02:45;4.93;;;2.13;;
7047;SDS011;3565;53.254;10.352;2023-12-20T01:05:16;9.13;;;2.63;;
7047;SDS011;3565;53.254;10.352;2023-12-20T01:07:45;12.60;;;2.50;;
7047;SDS011;3565;53.254;10.352;2023-12-20T01:10:14;13.37;;;2.80;;
7047;SDS011;3565;53.254;10.352;2023-12-20T01:12:43;12.53;;;3.10;;
7047;SDS011;3565;53.254;10.352;2023-12-20T01:15:12;8.93;;;2.30;;
7047;SDS011;3565;53.254;10.352;2023-12-20T01:17:41;5.03;;;2.43;;
7047;SDS011;3565;53.254;10.352;2023-12-20T01:20:11;10.10;;;3.00;;
7047;SDS011;3565;53.254;10.352;2023-12-20T01:22:39;10.10;;;2.70;;
7047;SDS011;3565;53.254;10.352;2023-12-20T01:25:09;11.67;;;3.03;;
7047;SDS011;3565;53.254;10.352;2023-12-20T01:27:38;9.00;;;3.07;;
7047;SDS011;3565;53.254;10.352;2023-12-20T01:30:08;10.37;;;3.23;;
7047;SDS011;3565;53.254;10.352;2023-12-20T01:32:38;9.87;;;2.37;;
7047;SDS011;3565;53.254;10.352;2023-12-20T01:35:07;9.53;;;2.70;;
7047;SDS011;3565;53.254;10.352;2023-12-20T01:37:37;9.53;;;2.90;;
7047;SDS011;3565;53.254;10.352;2023-12-20T01:40:07;7.50;;;2.57;;
7047;SDS011;3565;53.254;10.352;2023-12-20T01:42:38;9.03;;;2.67;;
7047;SDS011;3565;53.254;10.352;2023-12-20T01:45:08;18.33;;;3.03;;
7047;SDS011;3565;53.254;10.352;2023-12-20T01:47:37;8.13;;;2.60;;
7047;SDS011;3565;53.254;10.352;2023-12-20T01:50:08;7.00;;;2.73;;
7047;SDS011;3565;53.254;10.352;2023-12-20T01:52:37;5.40;;;2.77;;
7047;SDS011;3565;53.254;10.352;2023-12-20T01:55:07;8.07;;;2.60;;
7047;SDS011;3565;53.254;10.352;2023-12-20T01:57:39;6.73;;;3.10;;
7047;SDS011;3565;53.254;10.352;2023-12-20T02:00:11;6.87;;;2.60;;
7047;SDS011;3565;53.254;10.352;2023-12-20T02:02:42;10.23;;;3.00;;
7047;SDS011;3565;53.254;10.352;2023-12-20T02:05:12;10.53;;;2.83;;
7047;SDS011;3565;53.254;10.352;2023-12-20T02:07:41;13.40;;;2.93;;
7047;SDS011;3565;53.254;10.352;2023-12-20T02:10:10;11.77;;;3.30;;
7047;SDS011;3565;53.254;10.352;2023-12-20T02:12:40;12.43;;;3.27;;
7047;SDS011;3565;53.254;10.352;2023-12-20T02:15:09;10.10;;;3.53;;
7047;SDS011;3565;53.254;10.352;2023-12-20T02:17:38;10.23;;;3.37;;
7047;SDS011;3565;53.254;10.352;2023-12-20T02:20:07;8.10;;;2.90;;
7047;SDS011;3565;53.254;10.352;2023-12-20T02:22:37;13.13;;;4.17;;
7047;SDS011;3565;53.254;10.352;2023-12-20T02:25:07;10.57;;;3.77;;
7047;SDS011;3565;53.254;10.352;2023-12-20T02:27:36;13.90;;;4.00;;
7047;SDS011;3565;53.254;10.352;2023-12-20T02:30:06;11.40;;;4.00;;
7047;SDS011;3565;53.254;10.352;2023-12-20T02:32:37;13.43;;;3.80;;
7047;SDS011;3565;53.254;10.352;2023-12-20T02:35:07;13.90;;;4.30;;
7047;SDS011;3565;53.254;10.352;2023-12-20T02:37:36;16.13;;;3.90;;
7047;SDS011;3565;53.254;10.352;2023-12-20T02:40:06;12.57;;;4.57;;
7047;SDS011;3565;53.254;10.352;2023-12-20T02:42:37;7.57;;;4.57;;
7047;SDS011;3565;53.254;10.352;2023-12-20T02:45:08;18.37;;;5.40;;
7047;SDS011;3565;53.254;10.352;2023-12-20T02:47:37;14.47;;;5.20;;
7047;SDS011;3565;53.254;10.352;2023-12-20T02:50:07;14.60;;;5.70;;
7047;SDS011;3565;53.254;10.352;2023-12-20T02:52:36;10.00;;;4.70;;
7047;SDS011;3565;53.254;10.352;2023-12-20T02:55:07;12.37;;;4.97;;
7047;SDS011;3565;53.254;10.352;2023-12-20T02:57:36;8.77;;;5.27;;
7047;SDS011;3565;53.254;10.352;2023-12-20T03:00:08;15.20;;;4.70;;
7047;SDS011;3565;53.254;10.352;2023-12-20T03:02:38;11.93;;;5.27;;
7047;SDS011;3565;53.254;10.352;2023-12-20T03:05:08;15.83;;;5.60;;
7047;SDS011;3565;53.254;10.352;2023-12-20T03:07:46;11.07;;;4.80;;
7047;SDS011;3565;53.254;10.352;2023-12-20T03:10:15;14.03;;;4.77;;
7047;SDS011;3565;53.254;10.352;2023-12-20T03:12:44;15.10;;;5.63;;
7047;SDS011;3565;53.254;10.352;2023-12-20T03:15:13;14.20;;;5.20;;
7047;SDS011;3565;53.254;10.352;2023-12-20T03:17:42;15.60;;;5.00;;
7047;SDS011;3565;53.254;10.352;2023-12-20T03:20:11;12.50;;;4.70;;
7047;SDS011;3565;53.254;10.352;2023-12-20T03:22:40;14.43;;;4.73;;
7047;SDS011;3565;53.254;10.352;2023-12-20T03:25:18;11.50;;;4.37;;
7047;SDS011;3565;53.254;10.352;2023-12-20T03:27:47;11.60;;;4.83;;
7047;SDS011;3565;53.254;10.352;2023-12-20T03:30:16;12.50;;;4.17;;
7047;SDS011;3565;53.254;10.352;2023-12-20T03:32:45;10.53;;;4.27;;
7047;SDS011;3565;53.254;10.352;2023-12-20T03:35:14;8.20;;;3.57;;
7047;SDS011;3565;53.254;10.352;2023-12-20T03:37:48;14.03;;;3.70;;
7047;SDS011;3565;53.254;10.352;2023-12-20T03:40:17;11.63;;;3.93;;
7047;SDS011;3565;53.254;10.352;2023-12-20T03:42:46;7.73;;;3.70;;
7047;SDS011;3565;53.254;10.352;2023-12-20T03:45:15;11.87;;;3.47;;
7047;SDS011;3565;53.254;10.352;2023-12-20T03:47:44;9.40;;;3.73;;
7047;SDS011;3565;53.254;10.352;2023-12-20T03:50:13;10.53;;;3.93;;
7047;SDS011;3565;53.254;10.352;2023-12-20T03:52:43;8.90;;;3.57;;
7047;SDS011;3565;53.254;10.352;2023-12-20T03:55:12;11.80;;;3.33;;
7047;SDS011;3565;53.254;10.352;2023-12-20T03:57:41;10.20;;;3.57;;
7047;SDS011;3565;53.254;10.352;2023-12-20T04:02:52;7.23;;;3.37;;
7047;SDS011;3565;53.254;10.352;2023-12-20T04:05:21;5.10;;;2.83;;
7047;SDS011;3565;53.254;10.352;2023-12-20T04:07:50;8.27;;;3.30;;
7047;SDS011;3565;53.254;10.352;2023-12-20T04:10:19;7.97;;;3.37;;
7047;SDS011;3565;53.254;10.352;2023-12-20T04:12:48;10.40;;;3.40;;
7047;SDS011;3565;53.254;10.352;2023-12-20T04:15:17;12.33;;;3.10;;
7047;SDS011;3565;53.254;10.352;2023-12-20T04:17:46;8.47;;;3.63;;
7047;SDS011;3565;53.254;10.352;2023-12-20T04:20:15;6.90;;;3.47;;
7047;SDS011;3565;53.254;10.352;2023-12-20T04:22:44;6.83;;;3.30;;
7047;SDS011;3565;53.254;10.352;2023-12-20T04:25:13;9.00;;;3.30;;
7047;SDS011;3565;53.254;10.352;2023-12-20T04:27:42;8.33;;;3.10;;
7047;SDS011;3565;53.254;10.352;2023-12-20T04:30:13;9.87;;;3.13;;
7047;SDS011;3565;53.254;10.352;2023-12-20T04:32:42;11.27;;;3.53;;
7047;SDS011;3565;53.254;10.352;2023-12-20T04:35:10;10.37;;;3.80;;
7047;SDS011;3565;53.254;10.352;2023-12-20T04:37:39;11.53;;;3.30;;
7047;SDS011;3565;53.254;10.352;2023-12-20T04:40:09;12.50;;;4.03;;
7047;SDS011;3565;53.254;10.352;2023-12-20T04:42:38;6.10;;;3.43;;
7047;SDS011;3565;53.254;10.352;2023-12-20T04:45:09;11.57;;;3.50;;
7047;SDS011;3565;53.254;10.352;2023-12-20T04:47:39;10.20;;;4.07;;
7047;SDS011;3565;53.254;10.352;2023-12-20T04:50:10;8.30;;;4.27;;
7047;SDS011;3565;53.254;10.352;2023-12-20T04:52:39;10.63;;;3.70;;
7047;SDS011;3565;53.254;10.352;2023-12-20T04:55:09;14.17;;;4.07;;
7047;SDS011;3565;53.254;10.352;2023-12-20T04:57:38;11.37;;;4.07;;
7047;SDS011;3565;53.254;10.352;2023-12-20T05:00:08;10.67;;;3.93;;
7047;SDS011;3565;53.254;10.352;2023-12-20T05:02:38;13.03;;;3.80;;
7047;SDS011;3565;53.254;10.352;2023-12-20T05:05:08;6.30;;;3.27;;
7047;SDS011;3565;53.254;10.352;2023-12-20T05:07:37;9.43;;;3.93;;
7047;SDS011;3565;53.254;10.352;2023-12-20T05:10:07;13.93;;;4.03;;
7047;SDS011;3565;53.254;10.352;2023-12-20T05:12:37;8.90;;;3.87;;
7047;SDS011;3565;53.254;10.352;2023-12-20T05:15:07;14.77;;;4.03;;
7047;SDS011;3565;53.254;10.352;2023-12-20T05:17:36;10.17;;;3.80;;
7047;SDS011;3565;53.254;10.352;2023-12-20T05:20:07;10.23;;;3.57;;
7047;SDS011;3565;53.254;10.352;2023-12-20T05:22:36;9.80;;;4.27;;
7047;SDS011;3565;53.254;10.352;2023-12-20T05:25:06;13.47;;;4.47;;
7047;SDS011;3565;53.254;10.352;2023-12-20T05:27:35;11.80;;;3.80;;
7047;SDS011;3565;53.254;10.352;2023-12-20T05:30:05;9.97;;;3.77;;
7047;SDS011;3565;53.254;10.352;2023-12-20T05:32:35;12.70;;;4.03;;
7047;SDS011;3565;53.254;10.352;2023-12-20T05:35:05;8.37;;;3.60;;
7047;SDS011;3565;53.254;10.352;2023-12-20T05:37:35;12.13;;;4.87;;
7047;SDS011;3565;53.254;10.352;2023-12-20T05:40:06;12.73;;;3.80;;
7047;SDS011;3565;53.254;10.352;2023-12-20T05:42:36;10.43;;;3.77;;
7047;SDS011;3565;53.254;10.352;2023-12-20T05:45:06;9.47;;;3.67;;
7047;SDS011;3565;53.254;10.352;2023-12-20T05:47:37;10.40;;;3.60;;
7047;SDS011;3565;53.254;10.352;2023-12-20T05:50:06;9.13;;;3.40;;
7047;SDS011;3565;53.254;10.352;2023-12-20T05:52:36;9.30;;;3.83;;
7047;SDS011;3565;53.254;10.352;2023-12-20T05:55:06;12.60;;;3.77;;
7047;SDS011;3565;53.254;10.352;2023-12-20T05:57:35;7.93;;;3.80;;
7047;SDS011;3565;53.254;10.352;2023-12-20T06:00:06;12.60;;;4.27;;
7047;SDS011;3565;53.254;10.352;2023-12-20T06:02:36;11.03;;;3.97;;
7047;SDS011;3565;53.254;10.352;2023-12-20T06:05:06;15.97;;;3.60;;
7047;SDS011;3565;53.254;10.352;2023-12-20T06:07:35;8.87;;;3.57;;
7047;SDS011;3565;53.254;10.352;2023-12-20T06:10:05;9.00;;;3.70;;
7047;SDS011;3565;53.254;10.352;2023-12-20T06:12:35;13.63;;;4.17;;
7047;SDS011;3565;53.254;10.352;2023-12-20T06:15:05;10.33;;;4.40;;
7047;SDS011;3565;53.254;10.352;2023-12-20T06:17:35;14.07;;;4.33;;
7047;SDS011;3565;53.254;10.352;2023-12-20T06:20:05;13.60;;;4.57;;
7047;SDS011;3565;53.254;10.352;2023-12-20T06:22:36;14.50;;;4.67;;
7047;SDS011;3565;53.254;10.352;2023-12-20T06:25:05;10.30;;;4.67;;
7047;SDS011;3565;53.254;10.352;2023-12-20T06:27:35;9.43;;;4.43;;
7047;SDS011;3565;53.254;10.352;2023-12-20T06:30:06;9.53;;;4.93;;
7047;SDS011;3565;53.254;10.352;2023-12-20T06:32:36;12.57;;;4.47;;
7047;SDS011;3565;53.254;10.352;2023-12-20T06:35:06;10.77;;;4.67;;
7047;SDS011;3565;53.254;10.352;2023-12-20T06:37:36;17.27;;;4.80;;
7047;SDS011;3565;53.254;10.352;2023-12-20T06:40:09;9.07;;;4.23;;
7047;SDS011;3565;53.254;10.352;2023-12-20T06:42:38;10.93;;;4.80;;
7047;SDS011;3565;53.254;10.352;2023-12-20T06:45:08;11.87;;;4.67;;
7047;SDS011;3565;53.254;10.352;2023-12-20T06:47:39;11.20;;;4.27;;
7047;SDS011;3565;53.254;10.352;2023-12-20T06:50:10;19.87;;;4.67;;
7047;SDS011;3565;53.254;10.352;2023-12-20T06:52:39;12.23;;;4.37;;
7047;SDS011;3565;53.254;10.352;2023-12-20T06:55:08;12.07;;;4.13;;
7047;SDS011;3565;53.254;10.352;2023-12-20T06:57:37;11.47;;;4.00;;
7047;SDS011;3565;53.254;10.352;2023-12-20T07:00:17;15.33;;;4.50;;
7047;SDS011;3565;53.254;10.352;2023-12-20T07:02:47;14.33;;;4.23;;
7047;SDS011;3565;53.254;10.352;2023-12-20T07:05:17;8.33;;;3.90;;
7047;SDS011;3565;53.254;10.352;2023-12-20T07:07:46;10.97;;;3.90;;
7047;SDS011;3565;53.254;10.352;2023-12-20T07:10:15;13.33;;;4.10;;
7047;SDS011;3565;53.254;10.352;2023-12-20T07:12:44;11.97;;;4.20;;
7047;SDS011;3565;53.254;10.352;2023-12-20T07:15:22;13.93;;;4.53;;
7047;SDS011;3565;53.254;10.352;2023-12-20T07:17:51;13.47;;;4.10;;
7047;SDS011;3565;53.254;10.352;2023-12-20T07:20:20;7.07;;;3.47;;
7047;SDS011;3565;53.254;10.352;2023-12-20T07:22:49;6.40;;;3.23;;
7047;SDS011;3565;53.254;10.352;2023-12-20T07:25:18;11.83;;;3.60;;
7047;SDS011;3565;53.254;10.352;2023-12-20T07:27:47;14.70;;;4.03;;
7047;SDS011;3565;53.254;10.352;2023-12-20T07:30:16;15.67;;;3.90;;
7047;SDS011;3565;53.254;10.352;2023-12-20T07:32:45;7.90;;;3.50;;
7047;SDS011;3565;53.254;10.352;2023-12-20T07:35:14;10.37;;;3.63;;
7047;SDS011;3565;53.254;10.352;2023-12-20T07:37:43;11.43;;;4.00;;
7047;SDS011;3565;53.254;10.352;2023-12-20T07:40:13;16.73;;;4.50;;
7047;SDS011;3565;53.254;10.352;2023-12-20T07:42:43;9.23;;;4.00;;
7047;SDS011;3565;53.254;10.352;2023-12-20T07:45:12;9.93;;;3.60;;
7047;SDS011;3565;53.254;10.352;2023-12-20T07:47:41;10.73;;;4.03;;
7047;SDS011;3565;53.254;10.352;2023-12-20T07:50:10;16.30;;;4.60;;
7047;SDS011;3565;53.254;10.352;2023-12-20T07:52:39;12.20;;;3.93;;
7047;SDS011;3565;53.254;10.352;2023-12-20T07:55:08;13.37;;;3.67;;
7047;SDS011;3565;53.254;10.352;2023-12-20T07:57:37;15.53;;;4.00;;
7047;SDS011;3565;53.254;10.352;2023-12-20T08:00:07;14.20;;;4.20;;
7047;SDS011;3565;53.254;10.352;2023-12-20T08:02:37;13.03;;;3.17;;
7047;SDS011;3565;53.254;10.352;2023-12-20T08:05:07;16.83;;;4.10;;
7047;SDS011;3565;53.254;10.352;2023-12-20T08:07:36;11.67;;;3.80;;
7047;SDS011;3565;53.254;10.352;2023-12-20T08:10:06;9.17;;;3.97;;
7047;SDS011;3565;53.254;10.352;2023-12-20T08:12:36;9.43;;;3.57;;
7047;SDS011;3565;53.254;10.352;2023-12-20T08:15:08;16.00;;;4.63;;
7047;SDS011;3565;53.254;10.352;2023-12-20T08:17:37;14.40;;;4.13;;
7047;SDS011;3565;53.254;10.352;2023-12-20T08:20:08;12.20;;;3.30;;
7047;SDS011;3565;53.254;10.352;2023-12-20T08:22:37;13.47;;;4.37;;
7047;SDS011;3565;53.254;10.352;2023-12-20T08:25:07;10.83;;;4.40;;
7047;SDS011;3565;53.254;10.352;2023-12-20T08:27:38;16.30;;;3.90;;
7047;SDS011;3565;53.254;10.352;2023-12-20T08:30:09;9.50;;;3.87;;
7047;SDS011;3565;53.254;10.352;2023-12-20T08:32:38;17.63;;;4.23;;
7047;SDS011;3565;53.254;10.352;2023-12-20T08:35:07;11.87;;;3.90;;
7047;SDS011;3565;53.254;10.352;2023-12-20T08:37:36;12.10;;;4.10;;
7047;SDS011;3565;53.254;10.352;2023-12-20T08:40:06;13.33;;;4.17;;
7047;SDS011;3565;53.254;10.352;2023-12-20T08:42:38;17.30;;;4.20;;
7047;SDS011;3565;53.254;10.352;2023-12-20T08:45:08;11.37;;;4.23;;
7047;SDS011;3565;53.254;10.352;2023-12-20T08:47:37;16.50;;;4.80;;
7047;SDS011;3565;53.254;10.352;2023-12-20T08:50:08;13.53;;;3.73;;
7047;SDS011;3565;53.254;10.352;2023-12-20T08:52:38;14.80;;;3.83;;
7047;SDS011;3565;53.254;10.352;2023-12-20T08:55:08;7.10;;;3.90;;
7047;SDS011;3565;53.254;10.352;2023-12-20T08:57:37;8.77;;;3.37;;
7047;SDS011;3565;53.254;10.352;2023-12-20T09:00:07;12.93;;;3.70;;
7047;SDS011;3565;53.254;10.352;2023-12-20T09:02:37;19.10;;;4.67;;
7047;SDS011;3565;53.254;10.352;2023-12-20T09:05:08;9.33;;;3.80;;
7047;SDS011;3565;53.254;10.352;2023-12-20T09:07:37;16.17;;;5.50;;
7047;SDS011;3565;53.254;10.352;2023-12-20T09:10:07;11.73;;;4.20;;
7047;SDS011;3565;53.254;10.352;2023-12-20T09:12:36;9.43;;;3.40;;
7047;SDS011;3565;53.254;10.352;2023-12-20T09:15:07;8.17;;;3.20;;
7047;SDS011;3565;53.254;10.352;2023-12-20T09:17:36;8.70;;;3.57;;
7047;SDS011;3565;53.254;10.352;2023-12-20T09:20:07;9.50;;;3.37;;
7047;SDS011;3565;53.254;10.352;2023-12-20T09:22:37;11.10;;;3.47;;
7047;SDS011;3565;53.254;10.352;2023-12-20T09:25:06;13.90;;;3.93;;
7047;SDS011;3565;53.254;10.352;2023-12-20T09:27:36;12.83;;;3.70;;
7047;SDS011;3565;53.254;10.352;2023-12-20T09:30:06;14.83;;;4.30;;
7047;SDS011;3565;53.254;10.352;2023-12-20T09:32:36;15.13;;;4.83;;
7047;SDS011;3565;53.254;10.352;2023-12-20T09:35:06;12.17;;;3.70;;
7047;SDS011;3565;53.254;10.352;2023-12-20T09:37:36;10.53;;;3.60;;
7047;SDS011;3565;53.254;10.352;2023-12-20T09:40:08;14.43;;;4.17;;
7047;SDS011;3565;53.254;10.352;2023-12-20T09:45:19;12.63;;;3.77;;
7047;SDS011;3565;53.254;10.352;2023-12-20T09:47:49;8.23;;;3.33;;
7047;SDS011;3565;53.254;10.352;2023-12-20T09:50:20;15.53;;;4.13;;
7047;SDS011;3565;53.254;10.352;2023-12-20T09:52:50;10.90;;;3.97;;
7047;SDS011;3565;53.254;10.352;2023-12-20T09:55:20;12.47;;;3.80;;
7047;SDS011;3565;53.254;10.352;2023-12-20T09:57:49;12.23;;;3.60;;
7047;SDS011;3565;53.254;10.352;2023-12-20T10:00:18;11.60;;;3.60;;
7047;SDS011;3565;53.254;10.352;2023-12-20T10:02:50;10.47;;;3.83;;
7047;SDS011;3565;53.254;10.352;2023-12-20T10:05:22;7.90;;;2.70;;
7047;SDS011;3565;53.254;10.352;2023-12-20T10:08:01;4.63;;;2.60;;
7047;SDS011;3565;53.254;10.352;2023-12-20T10:10:31;6.03;;;1.90;;
7047;SDS011;3565;53.254;10.352;2023-12-20T10:13:04;3.27;;;1.70;;
7047;SDS011;3565;53.254;10.352;2023-12-20T10:15:35;5.33;;;2.20;;
7047;SDS011;3565;53.254;10.352;2023-12-20T10:18:05;2.37;;;2.07;;
7047;SDS011;3565;53.254;10.352;2023-12-20T10:20:34;6.03;;;2.00;;
7047;SDS011;3565;53.254;10.352;2023-12-20T10:23:03;3.90;;;1.77;;
7047;SDS011;3565;53.254;10.352;2023-12-20T10:25:32;3.87;;;2.20;;
7047;SDS011;3565;53.254;10.352;2023-12-20T10:28:11;4.70;;;1.60;;
7047;SDS011;3565;53.254;10.352;2023-12-20T10:30:44;1.90;;;1.57;;
7047;SDS011;3565;53.254;10.352;2023-12-20T10:33:13;4.20;;;1.60;;
7047;SDS011;3565;53.254;10.352;2023-12-20T10:35:43;2.30;;;1.50;;
7047;SDS011;3565;53.254;10.352;2023-12-20T10:38:14;3.00;;;1.53;;
7047;SDS011;3565;53.254;10.352;2023-12-20T10:40:44;2.57;;;1.67;;
7047;SDS011;3565;53.254;10.352;2023-12-20T10:43:13;1.80;;;1.57;;
7047;SDS011;3565;53.254;10.352;2023-12-20T10:45:43;1.87;;;1.60;;
7047;SDS011;3565;53.254;10.352;2023-12-20T10:48:12;2.10;;;1.67;;
7047;SDS011;3565;53.254;10.352;2023-12-20T10:50:43;2.40;;;1.70;;
7047;SDS011;3565;53.254;10.352;2023-12-20T10:53:13;2.80;;;1.30;;
7047;SDS011;3565;53.254;10.352;2023-12-20T10:55:43;1.83;;;1.47;;
7047;SDS011;3565;53.254;10.352;2023-12-20T10:58:13;2.70;;;1.50;;
7047;SDS011;3565;53.254;10.352;2023-12-20T11:00:43;3.43;;;1.53;;
7047;SDS011;3565;53.254;10.352;2023-12-20T11:03:14;2.10;;;1.30;;
7047;SDS011;3565;53.254;10.352;2023-12-20T11:05:56;1.77;;;1.40;;
7047;SDS011;3565;53.254;10.352;2023-12-20T11:08:38;3.17;;;1.37;;
7047;SDS011;3565;53.254;10.352;2023-12-20T11:11:10;2.20;;;1.43;;
7047;SDS011;3565;53.254;10.352;2023-12-20T11:13:43;3.73;;;1.27;;
7047;SDS011;3565;53.254;10.352;2023-12-20T11:16:14;1.57;;;1.30;;
7047;SDS011;3565;53.254;10.352;2023-12-20T11:18:44;1.60;;;1.50;;
7047;SDS011;3565;53.254;10.352;2023-12-20T11:21:14;4.00;;;1.60;;
7047;SDS011;3565;53.254;10.352;2023-12-20T11:23:44;5.17;;;1.77;;
7047;SDS011;3565;53.254;10.352;2023-12-20T11:26:15;5.10;;;2.00;;
7047;SDS011;3565;53.254;10.352;2023-12-20T11:28:46;4.53;;;1.50;;
7047;SDS011;3565;53.254;10.352;2023-12-20T11:33:54;4.17;;;1.50;;
7047;SDS011;3565;53.254;10.352;2023-12-20T11:36:28;1.80;;;1.60;;
7047;SDS011;3565;53.254;10.352;2023-12-20T11:39:08;3.00;;;1.97;;
7047;SDS011;3565;53.254;10.352;2023-12-20T11:41:37;2.83;;;1.60;;
7047;SDS011;3565;53.254;10.352;2023-12-20T11:44:06;1.53;;;1.43;;
7047;SDS011;3565;53.254;10.352;2023-12-20T11:46:35;4.87;;;1.80;;
7047;SDS011;3565;53.254;10.352;2023-12-20T11:49:04;4.60;;;2.17;;
7047;SDS011;3565;53.254;10.352;2023-12-20T11:51:33;7.97;;;4.70;;
7047;SDS011;3565;53.254;10.352;2023-12-20T11:54:02;6.87;;;1.90;;
7047;SDS011;3565;53.254;10.352;2023-12-20T11:56:32;3.30;;;1.60;;
7047;SDS011;3565;53.254;10.352;2023-12-20T11:59:01;2.80;;;1.57;;
7047;SDS011;3565;53.254;10.352;2023-12-20T12:01:31;3.63;;;1.90;;
7047;SDS011;3565;53.254;10.352;2023-12-20T12:04:05;3.43;;;1.70;;
7047;SDS011;3565;53.254;10.352;2023-12-20T12:06:34;5.33;;;2.07;;
7047;SDS011;3565;53.254;10.352;2023-12-20T12:09:03;3.70;;;1.80;;
7047;SDS011;3565;53.254;10.352;2023-12-20T12:11:33;8.80;;;1.70;;
7047;SDS011;3565;53.254;10.352;2023-12-20T12:14:02;5.03;;;1.67;;
7047;SDS011;3565;53.254;10.352;2023-12-20T12:16:31;5.67;;;1.97;;
7047;SDS011;3565;53.254;10.352;2023-12-20T12:19:00;7.93;;;2.53;;
7047;SDS011;3565;53.254;10.352;2023-12-20T12:21:28;3.60;;;1.97;;
7047;SDS011;3565;53.254;10.352;2023-12-20T12:24:06;4.70;;;1.70;;
7047;SDS011;3565;53.254;10.352;2023-12-20T12:26:36;6.93;;;1.87;;
7047;SDS011;3565;53.254;10.352;2023-12-20T12:29:08;9.33;;;2.07;;
7047;SDS011;3565;53.254;10.352;2023-12-20T12:31:37;5.17;;;1.97;;
7047;SDS011;3565;53.254;10.352;2023-12-20T12:34:06;7.20;;;1.90;;
7047;SDS011;3565;53.254;10.352;2023-12-20T12:36:36;7.03;;;2.30;;
7047;SDS011;3565;53.254;10.352;2023-12-20T12:41:42;8.00;;;2.13;;
7047;SDS011;3565;53.254;10.352;2023-12-20T12:44:11;5.37;;;1.90;;
7047;SDS011;3565;53.254;10.352;2023-12-20T12:46:39;9.83;;;2.47;;
7047;SDS011;3565;53.254;10.352;2023-12-20T12:49:09;5.20;;;2.20;;
7047;SDS011;3565;53.254;10.352;2023-12-20T12:51:38;4.27;;;1.87;;
7047;SDS011;3565;53.254;10.352;2023-12-20T12:54:07;4.37;;;2.20;;
7047;SDS011;3565;53.254;10.352;2023-12-20T12:56:36;4.20;;;1.97;;
7047;SDS011;3565;53.254;10.352;2023-12-20T12:59:05;5.63;;;2.10;;
7047;SDS011;3565;53.254;10.352;2023-12-20T13:01:35;5.07;;;1.90;;
7047;SDS011;3565;53.254;10.352;2023-12-20T13:04:05;4.47;;;1.70;;
7047;SDS011;3565;53.254;10.352;2023-12-20T13:06:35;3.50;;;1.90;;
7047;SDS011;3565;53.254;10.352;2023-12-20T13:09:05;6.53;;;1.50;;
7047;SDS011;3565;53.254;10.352;2023-12-20T13:11:35;8.57;;;2.67;;
7047;SDS011;3565;53.254;10.352;2023-12-20T13:14:04;6.67;;;1.97;;
7047;SDS011;3565;53.254;10.352;2023-12-20T13:16:35;2.67;;;1.80;;
7047;SDS011;3565;53.254;10.352;2023-12-20T13:19:04;2.37;;;1.90;;
7047;SDS011;3565;53.254;10.352;2023-12-20T13:21:33;7.27;;;1.87;;
7047;SDS011;3565;53.254;10.352;2023-12-20T13:24:02;4.63;;;1.60;;
7047;SDS011;3565;53.254;10.352;2023-12-20T13:26:32;4.97;;;2.00;;
7047;SDS011;3565;53.254;10.352;2023-12-20T13:29:01;5.93;;;2.00;;
7047;SDS011;3565;53.254;10.352;2023-12-20T13:31:30;5.80;;;2.23;;
7047;SDS011;3565;53.254;10.352;2023-12-20T13:33:59;6.03;;;1.87;;
7047;SDS011;3565;53.254;10.352;2023-12-20T13:36:28;6.30;;;1.90;;
7047;SDS011;3565;53.254;10.352;2023-12-20T13:38:56;4.70;;;1.90;;
7047;SDS011;3565;53.254;10.352;2023-12-20T13:41:26;8.27;;;2.30;;
7047;SDS011;3565;53.254;10.352;2023-12-20T13:43:55;3.67;;;2.00;;
7047;SDS011;3565;53.254;10.352;2023-12-20T13:46:23;6.40;;;2.20;;
7047;SDS011;3565;53.254;10.352;2023-12-20T13:48:54;8.87;;;2.27;;
7047;SDS011;3565;53.254;10.352;2023-12-20T13:51:22;8.30;;;2.73;;
7047;SDS011;3565;53.254;10.352;2023-12-20T13:53:51;6.10;;;2.27;;
7047;SDS011;3565;53.254;10.352;2023-12-20T13:56:20;5.97;;;2.80;;
7047;SDS011;3565;53.254;10.352;2023-12-20T13:58:49;13.47;;;3.23;;
7047;SDS011;3565;53.254;10.352;2023-12-20T14:01:18;7.03;;;2.53;;
7047;SDS011;3565;53.254;10.352;2023-12-20T14:03:47;8.33;;;2.60;;
7047;SDS011;3565;53.254;10.352;2023-12-20T14:06:16;12.17;;;2.97;;
7047;SDS011;3565;53.254;10.352;2023-12-20T14:08:45;12.03;;;3.07;;
7047;SDS011;3565;53.254;10.352;2023-12-20T14:11:14;8.53;;;2.87;;
7047;SDS011;3565;53.254;10.352;2023-12-20T14:13:44;13.37;;;3.03;;
7047;SDS011;3565;53.254;10.352;2023-12-20T14:16:13;8.43;;;3.27;;
7047;SDS011;3565;53.254;10.352;2023-12-20T14:18:43;6.73;;;3.10;;
7047;SDS011;3565;53.254;10.352;2023-12-20T14:21:12;8.63;;;2.83;;
7047;SDS011;3565;53.254;10.352;2023-12-20T14:23:40;11.33;;;3.33;;
7047;SDS011;3565;53.254;10.352;2023-12-20T14:28:47;9.13;;;3.37;;
7047;SDS011;3565;53.254;10.352;2023-12-20T14:31:16;11.03;;;3.30;;
7047;SDS011;3565;53.254;10.352;2023-12-20T14:33:45;8.20;;;3.03;;
7047;SDS011;3565;53.254;10.352;2023-12-20T14:36:15;9.07;;;3.10;;
7047;SDS011;3565;53.254;10.352;2023-12-20T14:38:45;13.23;;;3.20;;
7047;SDS011;3565;53.254;10.352;2023-12-20T14:41:15;12.93;;;3.47;;
7047;SDS011;3565;53.254;10.352;2023-12-20T14:43:45;12.67;;;4.10;;
7047;SDS011;3565;53.254;10.352;2023-12-20T14:46:14;11.07;;;2.80;;
7047;SDS011;3565;53.254;10.352;2023-12-20T14:48:43;9.60;;;3.00;;
7047;SDS011;3565;53.254;10.352;2023-12-20T14:51:12;7.83;;;3.73;;
7047;SDS011;3565;53.254;10.352;2023-12-20T14:53:41;11.60;;;3.07;;
7047;SDS011;3565;53.254;10.352;2023-12-20T14:56:10;10.20;;;3.67;;
7047;SDS011;3565;53.254;10.352;2023-12-20T14:58:39;11.40;;;3.40;;
7047;SDS011;3565;53.254;10.352;2023-12-20T15:01:08;10.97;;;3.57;;
7047;SDS011;3565;53.254;10.352;2023-12-20T15:03:37;18.20;;;3.40;;
7047;SDS011;3565;53.254;10.352;2023-12-20T15:06:06;13.70;;;3.30;;
7047;SDS011;3565;53.254;10.352;2023-12-20T15:08:37;15.83;;;3.37;;
7047;SDS011;3565;53.254;10.352;2023-12-20T15:11:06;13.53;;;3.33;;
7047;SDS011;3565;53.254;10.352;2023-12-20T15:13:34;8.10;;;2.70;;
7047;SDS011;3565;53.254;10.352;2023-12-20T15:16:04;13.63;;;3.30;;
7047;SDS011;3565;53.254;10.352;2023-12-20T15:21:11;11.03;;;2.93;;
7047;SDS011;3565;53.254;10.352;2023-12-20T15:23:40;11.13;;;3.13;;
7047;SDS011;3565;53.254;10.352;2023-12-20T15:26:12;14.67;;;3.17;;
7047;SDS011;3565;53.254;10.352;2023-12-20T15:28:41;9.37;;;3.10;;
7047;SDS011;3565;53.254;10.352;2023-12-20T15:31:09;7.57;;;2.97;;